Time;durP1;ratioP1;P1;durP2;ratioP2;P2;SDS_P1;SDS_P2;PMS_P1;PMS_P2;Temp;Humidity;BMP_temperature;BMP_pressure;BME280_temperature;BME280_humidity;BME280_pressure;Samples;Min_cycle;Max_cycle;Signal;HPM_P1;HPM_P2
2022/05/13 00:04:05;;;;;;;;;;;;;;;13.21;59.66992;101780.6;;;;-81
2022/05/13 00:09:07;;;;;;;;;;;;;;;13.2;59.76953;101782.8;;;;-82
2022/05/13 00:14:05;;;;;;;;;;;;;;;13.2;60.19434;101778.1;;;;-83
2022/05/13 00:19:05;;;;;;;;;;;;;;;13.2;60.44141;101768;;;;-83
2022/05/13 00:22:16;;;;;;;9.7;2.3;;;;;;;;;;;;;-80
2022/05/13 00:24:05;;;;;;;;;;;;;;;13.19;60.45215;101766.3;;;;-83
2022/05/13 00:29:06;;;;;;;;;;;;;;;13.2;60.53027;101754.6;;;;-82
2022/05/13 00:34:05;;;;;;;;;;;;;;;13.19;60.63184;101762;;;;-82
2022/05/13 00:39:05;;;;;;;;;;;;;;;13.17;60.60547;101747.5;;;;-80
2022/05/13 00:44:05;;;;;;;;;;;;;;;13.17;60.67285;101747.8;;;;-81
2022/05/13 00:49:06;;;;;;;;;;;;;;;13.16;60.4248;101751.1;;;;-83
2022/05/13 00:52:16;;;;;;;10.5;2.1;;;;;;;;;;;;;-81
2022/05/13 00:54:05;;;;;;;;;;;;;;;13.15;60.81445;101750.6;;;;-81
2022/05/13 00:59:06;;;;;;;;;;;;;;;13.13;61.02441;101738.3;;;;-82
2022/05/13 01:04:08;;;;;;;;;;;;;;;13.15;61.31934;101740.1;;;;-80
2022/05/13 01:09:05;;;;;;;;;;;;;;;13.14;61.43945;101740.9;;;;-82
2022/05/13 01:14:07;;;;;;;;;;;;;;;13.13;61.78516;101741.5;;;;-81
2022/05/13 01:19:08;;;;;;;;;;;;;;;13.13;61.95313;101738.7;;;;-81
2022/05/13 01:22:23;;;;;;;14.1;2.4;;;;;;;;;;;;;-81
2022/05/13 01:24:05;;;;;;;;;;;;;;;13.12;62.04199;101731.8;;;;-82
2022/05/13 01:29:10;;;;;;;;;;;;;;;13.13;62.13281;101725.7;;;;-81
2022/05/13 01:34:07;;;;;;;;;;;;;;;13.11;62.2207;101724;;;;-81
2022/05/13 01:39:05;;;;;;;;;;;;;;;13.12;62.2207;101729;;;;-81
2022/05/13 01:44:05;;;;;;;;;;;;;;;13.12;61.94043;101726.9;;;;-81
2022/05/13 01:49:07;;;;;;;;;;;;;;;13.1;61.84863;101722.2;;;;-82
2022/05/13 01:52:18;;;;;;;10.2;1.9;;;;;;;;;;;;;-82
2022/05/13 01:54:06;;;;;;;;;;;;;;;13.1;61.78125;101723.2;;;;-80
2022/05/13 01:59:05;;;;;;;;;;;;;;;13.11;61.44727;101716.1;;;;-80
2022/05/13 02:04:08;;;;;;;;;;;;;;;13.09;61.42188;101703.1;;;;-82
2022/05/13 02:09:05;;;;;;;;;;;;;;;13.09;61.19824;101697.7;;;;-80
2022/05/13 02:14:05;;;;;;;;;;;;;;;13.06;60.8252;101694.6;;;;-82
2022/05/13 02:19:07;;;;;;;;;;;;;;;13.04;60.53125;101700.2;;;;-81
2022/05/13 02:22:19;;;;;;;10.7;2.1;;;;;;;;;;;;;-80
2022/05/13 02:24:05;;;;;;;;;;;;;;;13;60.44727;101688.3;;;;-80
2022/05/13 02:29:06;;;;;;;;;;;;;;;12.97;60.4209;101671.4;;;;-82
2022/05/13 02:34:05;;;;;;;;;;;;;;;12.92;60.29004;101681;;;;-81
2022/05/13 02:39:05;;;;;;;;;;;;;;;12.87;60.28418;101686.5;;;;-83
2022/05/13 02:44:06;;;;;;;;;;;;;;;12.8;60.31836;101692.4;;;;-81
2022/05/13 02:49:05;;;;;;;;;;;;;;;12.73;60.92383;101702.8;;;;-82
2022/05/13 02:52:22;;;;;;;6.3;1.6;;;;;;;;;;;;;-82
2022/05/13 02:54:07;;;;;;;;;;;;;;;12.69;61.56641;101702.1;;;;-82
2022/05/13 02:59:05;;;;;;;;;;;;;;;12.67;61.48535;101716.4;;;;-83
2022/05/13 03:04:05;;;;;;;;;;;;;;;12.64;61.66211;101705.2;;;;-82
2022/05/13 03:09:05;;;;;;;;;;;;;;;12.64;61.50488;101713.7;;;;-82
2022/05/13 03:14:08;;;;;;;;;;;;;;;12.63;61.48145;101715.6;;;;-81
2022/05/13 03:19:05;;;;;;;;;;;;;;;12.62;61.13281;101710.8;;;;-82
2022/05/13 03:22:22;;;;;;;6.9;1.6;;;;;;;;;;;;;-81
2022/05/13 03:24:05;;;;;;;;;;;;;;;12.6;60.73828;101704.3;;;;-80
2022/05/13 03:29:05;;;;;;;;;;;;;;;12.6;60.42578;101712.4;;;;-81
2022/05/13 03:34:05;;;;;;;;;;;;;;;12.6;60.10156;101715.4;;;;-80
2022/05/13 03:39:05;;;;;;;;;;;;;;;12.59;59.91016;101707.6;;;;-81
2022/05/13 03:44:05;;;;;;;;;;;;;;;12.58;59.69434;101714.5;;;;-81
2022/05/13 03:49:05;;;;;;;;;;;;;;;12.58;59.44824;101708.7;;;;-82
2022/05/13 03:52:23;;;;;;;5.5;1.4;;;;;;;;;;;;;-81
2022/05/13 03:54:05;;;;;;;;;;;;;;;12.57;59.39258;101705.5;;;;-80
2022/05/13 03:59:08;;;;;;;;;;;;;;;12.57;59.16895;101702.6;;;;-79
2022/05/13 04:04:05;;;;;;;;;;;;;;;12.58;59.31445;101706.1;;;;-81
2022/05/13 04:09:05;;;;;;;;;;;;;;;12.59;59.5166;101711.4;;;;-81
2022/05/13 04:19:05;;;;;;;;;;;;;;;12.6;59.64258;101727;;;;-82
2022/05/13 04:22:24;;;;;;;5.3;1.4;;;;;;;;;;;;;-81
2022/05/13 04:24:07;;;;;;;;;;;;;;;12.62;60.00293;101716.9;;;;-82
2022/05/13 04:29:06;;;;;;;;;;;;;;;12.63;60.2627;101719.9;;;;-81
2022/05/13 04:34:05;;;;;;;;;;;;;;;12.64;60.12988;101717.5;;;;-82
2022/05/13 04:39:05;;;;;;;;;;;;;;;12.67;60.44629;101733.7;;;;-82
2022/05/13 04:44:05;;;;;;;;;;;;;;;12.71;60.3623;101734.3;;;;-83
2022/05/13 04:49:05;;;;;;;;;;;;;;;12.74;60.15332;101733.1;;;;-81
2022/05/13 04:52:24;;;;;;;7.7;1.7;;;;;;;;;;;;;-83
2022/05/13 04:54:06;;;;;;;;;;;;;;;12.77;60.23633;101744.7;;;;-84
2022/05/13 04:59:08;;;;;;;;;;;;;;;12.81;60.24023;101748.9;;;;-80
2022/05/13 05:04:05;;;;;;;;;;;;;;;12.86;60.30566;101758;;;;-80
2022/05/13 05:09:05;;;;;;;;;;;;;;;12.9;60.38867;101765.8;;;;-83
2022/05/13 05:14:07;;;;;;;;;;;;;;;12.93;60.25781;101772.3;;;;-83
2022/05/13 05:19:08;;;;;;;;;;;;;;;12.97;60.25293;101779.6;;;;-81
2022/05/13 05:22:28;;;;;;;6.3;1.7;;;;;;;;;;;;;-80
2022/05/13 05:24:05;;;;;;;;;;;;;;;13.03;60.0127;101785;;;;-82
2022/05/13 05:29:06;;;;;;;;;;;;;;;13.07;59.7627;101789.1;;;;-82
2022/05/13 05:34:07;;;;;;;;;;;;;;;13.13;59.68066;101794.8;;;;-81
2022/05/13 05:39:07;;;;;;;;;;;;;;;13.21;59.58008;101799.3;;;;-80
2022/05/13 05:44:05;;;;;;;;;;;;;;;13.28;59.4209;101797.9;;;;-82
2022/05/13 05:49:05;;;;;;;;;;;;;;;13.36;59.27441;101797.7;;;;-80
2022/05/13 05:52:27;;;;;;;9.4;1.6;;;;;;;;;;;;;-83
2022/05/13 05:59:05;;;;;;;;;;;;;;;13.48;59.06641;101823.1;;;;-81
2022/05/13 06:04:07;;;;;;;;;;;;;;;13.55;58.93066;101823.4;;;;-79
2022/05/13 06:09:08;;;;;;;;;;;;;;;13.62;58.7832;101832.8;;;;-83
2022/05/13 06:14:06;;;;;;;;;;;;;;;13.72;58.57227;101830.4;;;;-82
2022/05/13 06:19:05;;;;;;;;;;;;;;;13.83;58.35156;101829.5;;;;-80
2022/05/13 06:22:28;;;;;;;4.2;1.2;;;;;;;;;;;;;-81
2022/05/13 06:24:05;;;;;;;;;;;;;;;13.98;58.02441;101847.4;;;;-79
2022/05/13 06:29:05;;;;;;;;;;;;;;;14.25;57.77832;101843.3;;;;-81
2022/05/13 06:34:05;;;;;;;;;;;;;;;14.83;56.98828;101838.9;;;;-81
2022/05/13 06:39:06;;;;;;;;;;;;;;;15.55;55.68359;101840.9;;;;-81
2022/05/13 06:44:05;;;;;;;;;;;;;;;16.18;54.10352;101846.2;;;;-81
2022/05/13 06:49:05;;;;;;;;;;;;;;;16.73;53.0625;101838.6;;;;-80
2022/05/13 06:52:30;;;;;;;5.7;1.4;;;;;;;;;;;;;-81
2022/05/13 06:54:07;;;;;;;;;;;;;;;17.23;52.01172;101842.8;;;;-80
2022/05/13 06:59:05;;;;;;;;;;;;;;;17.66;51.05273;101845;;;;-84
2022/05/13 07:04:05;;;;;;;;;;;;;;;18.08;50.23828;101854.6;;;;-80
2022/05/13 07:09:05;;;;;;;;;;;;;;;18.35;49.60938;101853.7;;;;-83
2022/05/13 07:14:08;;;;;;;;;;;;;;;18.37;49.27051;101859.9;;;;-80
2022/05/13 07:19:05;;;;;;;;;;;;;;;18.51;49.20605;101865.6;;;;-80
2022/05/13 07:22:32;;;;;;;4.3;0.9;;;;;;;;;;;;;-81
2022/05/13 07:24:05;;;;;;;;;;;;;;;18.85;48.8125;101875.3;;;;-82
2022/05/13 07:29:09;;;;;;;;;;;;;;;19.19;48.1084;101871.2;;;;-80
2022/05/13 07:34:06;;;;;;;;;;;;;;;19.53;47.4043;101877.7;;;;-83
2022/05/13 07:44:06;;;;;;;;;;;;;;;19.91;46.49707;101893.2;;;;-80
2022/05/13 07:49:05;;;;;;;;;;;;;;;19.98;46.40234;101891.8;;;;-85
2022/05/13 07:52:34;;;;;;;6.3;1.3;;;;;;;;;;;;;-84
2022/05/13 07:54:05;;;;;;;;;;;;;;;20.16;46.36426;101909.5;;;;-82
2022/05/13 07:59:07;;;;;;;;;;;;;;;20.26;45.91699;101910.4;;;;-83
2022/05/13 08:04:05;;;;;;;;;;;;;;;20.28;45.81543;101908.8;;;;-83
2022/05/13 08:09:06;;;;;;;;;;;;;;;20.23;45.74219;101915;;;;-82
2022/05/13 08:14:05;;;;;;;;;;;;;;;20.13;45.97168;101924;;;;-80
2022/05/13 08:19:06;;;;;;;;;;;;;;;20.13;46.00586;101923.5;;;;-82
2022/05/13 08:22:36;;;;;;;7;1.4;;;;;;;;;;;;;-82
2022/05/13 08:29:07;;;;;;;;;;;;;;;20.16;46.15723;101927.6;;;;-82
2022/05/13 08:34:05;;;;;;;;;;;;;;;20.24;46.01855;101945.1;;;;-83
2022/05/13 08:39:05;;;;;;;;;;;;;;;20.27;45.87207;101933.9;;;;-82
2022/05/13 08:44:09;;;;;;;;;;;;;;;20.28;45.94238;101939.9;;;;-81
2022/05/13 08:49:23;;;;;;;;;;;;;;;20.42;46.24219;101943.7;;;;-80
2022/05/13 08:54:09;;;;;;;;;;;;;;;20.66;45.76367;101944.2;;;;-83
2022/05/13 08:59:11;;;;;;;;;;;;;;;20.85;45.0957;101945.8;;;;-81
2022/05/13 09:04:07;;;;;;;;;;;;;;;21.08;44.79883;101963.3;;;;-83
2022/05/13 09:09:06;;;;;;;;;;;;;;;21.28;44.50977;101954.1;;;;-82
2022/05/13 09:14:09;;;;;;;;;;;;;;;21.4;44.20117;101958;;;;-82
2022/05/13 09:19:10;;;;;;;;;;;;;;;21.41;44.13184;101955;;;;-83
2022/05/13 09:22:45;;;;;;;7;1.4;;;;;;;;;;;;;-83
2022/05/13 09:24:05;;;;;;;;;;;;;;;21.45;44.0459;101955.4;;;;-81
2022/05/13 09:29:13;;;;;;;;;;;;;;;21.61;44.03809;101953.5;;;;-83
2022/05/13 09:34:05;;;;;;;;;;;;;;;21.83;43.31348;101949.2;;;;-81
2022/05/13 09:39:15;;;;;;;;;;;;;;;21.99;42.88086;101956.8;;;;-83
2022/05/13 09:44:08;;;;;;;;;;;;;;;22.11;42.61719;101961.2;;;;-82
2022/05/13 09:49:08;;;;;;;;;;;;;;;22.21;42.65039;101965.5;;;;-81
2022/05/13 09:52:44;;;;;;;6.6;1.6;;;;;;;;;;;;;-80
2022/05/13 09:54:17;;;;;;;;;;;;;;;22.26;42.38965;101970.1;;;;-81
2022/05/13 09:59:07;;;;;;;;;;;;;;;22.19;42.30371;101971.8;;;;-82
2022/05/13 10:04:10;;;;;;;;;;;;;;;22.15;42.41406;101974.4;;;;-83
2022/05/13 10:14:06;;;;;;;;;;;;;;;22.51;42.6543;101978.2;;;;-83
2022/05/13 10:19:09;;;;;;;;;;;;;;;22.82;42.40918;101985.1;;;;-81
2022/05/13 10:22:50;;;;;;;6.4;1.4;;;;;;;;;;;;;-83
2022/05/13 10:24:10;;;;;;;;;;;;;;;23.13;42.18457;101994.1;;;;-85
2022/05/13 10:29:09;;;;;;;;;;;;;;;23.49;42.19531;101995;;;;-84
2022/05/13 10:34:10;;;;;;;;;;;;;;;23.8;41.39453;101987;;;;-83
2022/05/13 10:39:14;;;;;;;;;;;;;;;24.11;41.04199;101986.3;;;;-81
2022/05/13 10:44:10;;;;;;;;;;;;;;;24.47;40.70508;101983.5;;;;-82
2022/05/13 10:49:16;;;;;;;;;;;;;;;24.72;40.18457;101990.8;;;;-80
2022/05/13 10:56:51;;;;;;;;;;;;;;;24.88;39.67773;101992.6;;;;-81
2022/05/13 11:01:52;;;;;;;;;;;;;;;24.75;39.45801;101991.7;;;;-83
2022/05/13 11:06:54;;;;;;;;;;;;;;;24.62;39.5166;101992.9;;;;-82
2022/05/13 11:11:46;;;;;;;;;;;;;;;23.11;38.71582;101992.5;;;;-82
2022/05/13 11:16:52;;;;;;;;;;;;;;;23.52;39.91602;101994.3;;;;-82
2022/05/13 11:21:53;;;;;;;;;;;;;;;24.17;39.33789;102005.1;;;;-84
2022/05/13 11:22:58;;;;;;;5.4;1.5;;;;;;;;;;;;;-84
2022/05/13 11:27:06;;;;;;;;;;;;;;;24.52;39.26465;101997.6;;;;-83
2022/05/13 11:32:01;;;;;;;;;;;;;;;24.71;39.41992;102006.2;;;;-82
2022/05/13 11:36:49;;;;;;;;;;;;;;;24.79;39.36914;102014.7;;;;-83
2022/05/13 11:41:55;;;;;;;;;;;;;;;24.63;39.15918;102018.4;;;;-83
2022/05/13 11:47:00;;;;;;;;;;;;;;;24.45;39.33984;102005.5;;;;-83
2022/05/13 11:51:58;;;;;;;;;;;;;;;24.42;39.6377;102015.2;;;;-83
2022/05/13 11:52:58;;;;;;;5.1;1.4;;;;;;;;;;;;;-82
2022/05/13 11:56:48;;;;;;;;;;;;;;;24.38;39.41406;102018.3;;;;-83
2022/05/13 12:01:57;;;;;;;;;;;;;;;24.36;39.60938;102024.9;;;;-83
2022/05/13 12:06:59;;;;;;;;;;;;;;;24.21;39.36426;102013.1;;;;-82
2022/05/13 12:11:54;;;;;;;;;;;;;;;24.18;39.4541;102019;;;;-83
2022/05/13 12:16:51;;;;;;;;;;;;;;;24.08;39.42285;102015.9;;;;-81
2022/05/13 12:21:57;;;;;;;;;;;;;;;23.98;39.4375;102023.7;;;;-82
2022/05/13 12:23:05;;;;;;;7.6;1.5;;;;;;;;;;;;;-81
2022/05/13 12:27:03;;;;;;;;;;;;;;;23.94;39.72168;102012.7;;;;-83
2022/05/13 12:32:02;;;;;;;;;;;;;;;23.94;39.76855;102021.5;;;;-82
2022/05/13 12:42:05;;;;;;;;;;;;;;;24.02;39.97168;102017.9;;;;-84
2022/05/13 12:46:49;;;;;;;;;;;;;;;24.03;39.6377;102015.4;;;;-82
2022/05/13 12:52:04;;;;;;;;;;;;;;;24.05;39.75586;102024.1;;;;-83
2022/05/13 12:53:03;;;;;;;7.2;1.7;;;;;;;;;;;;;-84
2022/05/13 12:56:49;;;;;;;;;;;;;;;24.06;39.49023;102008;;;;-82
2022/05/13 13:01:47;;;;;;;;;;;;;;;23.98;39.49512;102024.8;;;;-84
2022/05/13 13:06:50;;;;;;;;;;;;;;;23.96;39.45801;102020.9;;;;-83
2022/05/13 13:11:53;;;;;;;;;;;;;;;23.93;39.60645;102010.3;;;;-80
2022/05/13 13:16:47;;;;;;;;;;;;;;;23.88;39.46289;102014.6;;;;-83
2022/05/13 13:21:47;;;;;;;;;;;;;;;23.8;39.58301;102005.8;;;;-83
2022/05/13 13:23:08;;;;;;;6.3;1.5;;;;;;;;;;;;;-84
2022/05/13 13:26:46;;;;;;;;;;;;;;;23.72;39.62207;102007;;;;-81
2022/05/13 13:36:45;;;;;;;;;;;;;;;23.69;39.84961;102016;;;;-83
2022/05/13 13:41:50;;;;;;;;;;;;;;;23.64;39.86914;102008.1;;;;-82
2022/05/13 13:46:46;;;;;;;;;;;;;;;23.68;39.91797;102004.4;;;;-83
2022/05/13 13:51:49;;;;;;;;;;;;;;;23.75;39.58984;102013.4;;;;-81
2022/05/13 13:53:11;;;;;;;7.3;1.5;;;;;;;;;;;;;-83
2022/05/13 13:56:53;;;;;;;;;;;;;;;23.63;39.16406;102010.8;;;;-82
2022/05/13 14:02:08;;;;;;;;;;;;;;;23.57;39.52832;102012.9;;;;-82
2022/05/13 14:06:55;;;;;;;;;;;;;;;23.59;39.7832;102016.5;;;;-83
2022/05/13 14:11:58;;;;;;;;;;;;;;;23.54;39.20215;102013.5;;;;-81
2022/05/13 14:23:20;;;;;;;6.1;1.7;;;;;;;;;;;;;-82
2022/05/13 14:26:10;;;;;;;;;;;;;;;23.66;39.18945;102006;;;;-83
2022/05/13 14:31:15;;;;;;;;;;;;;;;23.78;39.08496;102017.8;;;;-83
2022/05/13 14:36:13;;;;;;;;;;;;;;;23.76;39.10645;102012.5;;;;-83
2022/05/13 14:41:11;;;;;;;;;;;;;;;23.71;39.05566;102010.6;;;;-83
2022/05/13 14:46:16;;;;;;;;;;;;;;;23.75;39.05859;102009.9;;;;-81
2022/05/13 14:51:08;;;;;;;;;;;;;;;23.83;38.66113;102005.7;;;;-81
2022/05/13 14:53:18;;;;;;;4.6;1.5;;;;;;;;;;;;;-82
2022/05/13 14:56:15;;;;;;;;;;;;;;;23.83;38.66113;102008.7;;;;-81
2022/05/13 15:01:11;;;;;;;;;;;;;;;23.78;38.6582;102006.4;;;;-83
2022/05/13 15:06:21;;;;;;;;;;;;;;;23.79;38.35938;102012.4;;;;-82
2022/05/13 15:11:07;;;;;;;;;;;;;;;23.7;38.29395;102017.2;;;;-84
2022/05/13 15:16:12;;;;;;;;;;;;;;;23.7;38.68555;102004;;;;-82
2022/05/13 15:21:08;;;;;;;;;;;;;;;23.76;38.65625;102005.6;;;;-83
2022/05/13 15:23:23;;;;;;;6.5;1.8;;;;;;;;;;;;;-84
2022/05/13 15:26:08;;;;;;;;;;;;;;;23.73;38.56152;102002.4;;;;-83
2022/05/13 15:31:11;;;;;;;;;;;;;;;23.66;38.41699;102004.4;;;;-84
2022/05/13 15:36:07;;;;;;;;;;;;;;;23.49;38.41309;102009.6;;;;-82
2022/05/13 15:41:07;;;;;;;;;;;;;;;23.35;38.67871;102013.4;;;;-83
2022/05/13 15:46:06;;;;;;;;;;;;;;;23.29;38.90332;102003.4;;;;-82
2022/05/13 15:53:26;;;;;;;5.8;2.1;;;;;;;;;;;;;-82
2022/05/13 15:55:17;;;;;;;;;;;;;;;23.05;38.74512;102001.7;;;;-83
2022/05/13 16:00:20;;;;;;;;;;;;;;;22.91;38.92871;102004.3;;;;-82
2022/05/13 16:05:13;;;;;;;;;;;;;;;22.77;38.89258;101998;;;;-80
2022/05/13 16:10:13;;;;;;;;;;;;;;;22.57;39.12891;101990.8;;;;-82
2022/05/13 16:15:18;;;;;;;;;;;;;;;22.41;39.25293;101986.8;;;;-80
2022/05/13 16:20:14;;;;;;;;;;;;;;;22.2;39.30273;101984.4;;;;-81
2022/05/13 16:23:31;;;;;;;5.8;2;;;;;;;;;;;;;-81
2022/05/13 16:25:14;;;;;;;;;;;;;;;22;39.48145;101989.2;;;;-83
2022/05/13 16:30:15;;;;;;;;;;;;;;;21.91;39.68066;101988.8;;;;-82
2022/05/13 16:35:24;;;;;;;;;;;;;;;21.78;39.8291;101979.4;;;;-82
2022/05/13 16:40:25;;;;;;;;;;;;;;;21.62;40.01074;101987.6;;;;-81
2022/05/13 16:45:17;;;;;;;;;;;;;;;21.45;40.38574;101984.8;;;;-81
2022/05/13 16:50:15;;;;;;;;;;;;;;;21.27;40.51855;101974.2;;;;-82
2022/05/13 16:53:31;;;;;;;8.6;2.1;;;;;;;;;;;;;-82
2022/05/13 16:55:21;;;;;;;;;;;;;;;21.1;40.75488;101977.4;;;;-81
2022/05/13 17:00:23;;;;;;;;;;;;;;;20.94;40.9248;101970.8;;;;-84
2022/05/13 17:05:13;;;;;;;;;;;;;;;20.73;41.47656;101986.5;;;;-81
2022/05/13 17:20:17;;;;;;;;;;;;;;;20.29;42.37402;101993.9;;;;-83
2022/05/13 17:23:44;;;;;;;6.6;1.9;;;;;;;;;;;;;-83
2022/05/13 17:25:24;;;;;;;;;;;;;;;20.13;42.63379;101994.2;;;;-83
2022/05/13 17:30:17;;;;;;;;;;;;;;;19.95;42.93652;101986.7;;;;-85
2022/05/13 17:35:23;;;;;;;;;;;;;;;19.81;43.21973;101986.4;;;;-82
2022/05/13 17:40:15;;;;;;;;;;;;;;;19.64;43.30762;101985.9;;;;-82
2022/05/13 17:45:13;;;;;;;;;;;;;;;19.53;43.47852;101991.4;;;;-81
2022/05/13 17:50:14;;;;;;;;;;;;;;;19.38;43.77148;101983.9;;;;-82
2022/05/13 17:54:04;;;;;;;7.3;1.9;;;;;;;;;;;;;-81
2022/05/13 17:55:17;;;;;;;;;;;;;;;19.22;44.01855;101991.6;;;;-82
2022/05/13 18:00:16;;;;;;;;;;;;;;;19.05;44.39063;101992;;;;-80
2022/05/13 18:05:13;;;;;;;;;;;;;;;18.9;44.4541;101990.5;;;;-84
2022/05/13 18:10:13;;;;;;;;;;;;;;;18.74;44.6543;101993.8;;;;-80
2022/05/13 18:15:13;;;;;;;;;;;;;;;18.57;44.83105;101988;;;;-81
2022/05/13 18:20:13;;;;;;;;;;;;;;;18.38;44.7666;101990.9;;;;-81
2022/05/13 18:23:38;;;;;;;7.6;1.8;;;;;;;;;;;;;-82
2022/05/13 18:25:13;;;;;;;;;;;;;;;18.19;45.17969;102000.4;;;;-81
2022/05/13 18:30:13;;;;;;;;;;;;;;;18.01;45.28711;101996.8;;;;-82
2022/05/13 18:35:13;;;;;;;;;;;;;;;17.84;45.33789;102000.7;;;;-81
2022/05/13 18:50:13;;;;;;;;;;;;;;;17.24;45.82129;102002.8;;;;-81
2022/05/13 18:53:40;;;;;;;7.6;1.9;;;;;;;;;;;;;-81
2022/05/13 18:55:13;;;;;;;;;;;;;;;17.05;46.13086;102002.5;;;;-82
2022/05/13 19:00:14;;;;;;;;;;;;;;;16.84;46.59473;102005.1;;;;-80
2022/05/13 19:05:13;;;;;;;;;;;;;;;16.65;46.76855;102007.4;;;;-81
2022/05/13 19:10:13;;;;;;;;;;;;;;;16.45;47.50586;102003.1;;;;-81
2022/05/13 19:15:14;;;;;;;;;;;;;;;16.24;47.5957;102009.7;;;;-80
2022/05/13 19:20:13;;;;;;;;;;;;;;;16.04;48.24316;102012.1;;;;-80
2022/05/13 19:23:44;;;;;;;7.9;2;;;;;;;;;;;;;-83
2022/05/13 19:25:14;;;;;;;;;;;;;;;15.84;48.76367;102010.3;;;;-82
2022/05/13 19:30:15;;;;;;;;;;;;;;;15.63;49.54297;102013.1;;;;-80
2022/05/13 19:35:13;;;;;;;;;;;;;;;15.44;49.73535;102015.2;;;;-81
2022/05/13 19:40:15;;;;;;;;;;;;;;;15.26;50.38086;102022.8;;;;-80
2022/05/13 19:45:14;;;;;;;;;;;;;;;15.1;51.0166;102024.6;;;;-82
2022/05/13 19:50:14;;;;;;;;;;;;;;;14.94;50.93066;102031.2;;;;-81
2022/05/13 19:53:43;;;;;;;6.2;1.8;;;;;;;;;;;;;-82
2022/05/13 19:55:14;;;;;;;;;;;;;;;14.8;51.43262;102031.8;;;;-82
2022/05/13 20:00:15;;;;;;;;;;;;;;;14.65;52.14746;102037;;;;-80
2022/05/13 20:15:14;;;;;;;;;;;;;;;14.29;53.0166;102041.3;;;;-79
2022/05/13 20:23:48;;;;;;;10.6;1.8;;;;;;;;;;;;;-81
2022/05/13 20:25:17;;;;;;;;;;;;;;;14.09;53.22852;102044.7;;;;-82
2022/05/13 20:30:16;;;;;;;;;;;;;;;13.99;53.71094;102048.7;;;;-81
2022/05/13 20:35:13;;;;;;;;;;;;;;;13.89;53.82227;102049.9;;;;-82
2022/05/13 20:40:13;;;;;;;;;;;;;;;13.78;54.37109;102052.4;;;;-83
2022/05/13 20:45:14;;;;;;;;;;;;;;;13.7;54.5166;102043.7;;;;-81
2022/05/13 20:50:19;;;;;;;;;;;;;;;13.62;54.55273;102050.4;;;;-80
2022/05/13 20:53:46;;;;;;;7.7;1.9;;;;;;;;;;;;;-81
2022/05/13 20:55:16;;;;;;;;;;;;;;;13.54;55.13867;102043.9;;;;-80
2022/05/13 21:00:15;;;;;;;;;;;;;;;13.46;55.43164;102041.6;;;;-82
2022/05/13 21:05:16;;;;;;;;;;;;;;;13.38;55.72266;102033.2;;;;-81
2022/05/13 21:10:20;;;;;;;;;;;;;;;13.32;56.44531;102032.3;;;;-83
2022/05/13 21:15:18;;;;;;;;;;;;;;;13.27;56.65234;102027.8;;;;-80
2022/05/13 21:20:14;;;;;;;;;;;;;;;13.23;56.75879;102027.2;;;;-82
2022/05/13 21:23:49;;;;;;;8.9;2.2;;;;;;;;;;;;;-80
2022/05/13 21:25:13;;;;;;;;;;;;;;;13.14;56.79102;102025.3;;;;-81
2022/05/13 21:30:16;;;;;;;;;;;;;;;13.08;57.20898;102034.7;;;;-80
2022/05/13 21:40:14;;;;;;;;;;;;;;;13;57.74902;102034.3;;;;-81
2022/05/13 21:45:31;;;;;;;;;;;;;;;12.96;58;102042.6;;;;-81
2022/05/13 21:50:13;;;;;;;;;;;;;;;12.91;58.57617;102046.6;;;;-78
2022/05/13 21:53:59;;;;;;;10.7;2;;;;;;;;;;;;;-82
2022/05/13 21:55:15;;;;;;;;;;;;;;;12.85;58.98242;102042.8;;;;-81
2022/05/13 22:00:24;;;;;;;;;;;;;;;12.82;59.34766;102042.3;;;;-82
2022/05/13 22:05:12;;;;;;;;;;;;;;;12.79;59.52344;102047.1;;;;-80
2022/05/13 22:10:13;;;;;;;;;;;;;;;12.77;59.90137;102045.2;;;;-81
2022/05/13 22:15:19;;;;;;;;;;;;;;;12.74;59.62891;102035.7;;;;-81
2022/05/13 22:20:14;;;;;;;;;;;;;;;12.69;59.90234;102037.3;;;;-80
2022/05/13 22:23:50;;;;;;;8.3;2;;;;;;;;;;;;;-80
2022/05/13 22:25:14;;;;;;;;;;;;;;;12.64;59.68066;102047.5;;;;-80
2022/05/13 22:30:16;;;;;;;;;;;;;;;12.61;60.13477;102049.8;;;;-81
2022/05/13 22:35:13;;;;;;;;;;;;;;;12.56;60.27539;102045.3;;;;-80
2022/05/13 22:40:16;;;;;;;;;;;;;;;12.53;60.14746;102045;;;;-82
2022/05/13 22:45:17;;;;;;;;;;;;;;;12.5;61.16016;102039.1;;;;-79
2022/05/13 22:50:16;;;;;;;;;;;;;;;12.48;61.81641;102037.9;;;;-80
2022/05/13 22:53:52;;;;;;;7.7;2.3;;;;;;;;;;;;;-80
2022/05/13 22:55:13;;;;;;;;;;;;;;;12.47;61.73828;102045.5;;;;-82
2022/05/13 23:00:15;;;;;;;;;;;;;;;12.47;61.82715;102042.2;;;;-81
2022/05/13 23:05:13;;;;;;;;;;;;;;;12.44;62.33594;102033;;;;-80
2022/05/13 23:15:16;;;;;;;;;;;;;;;12.4;62.82227;102029.1;;;;-80
2022/05/13 23:20:24;;;;;;;;;;;;;;;12.39;62.6875;102032.8;;;;-80
2022/05/13 23:23:53;;;;;;;11.7;2.4;;;;;;;;;;;;;-83
2022/05/13 23:25:13;;;;;;;;;;;;;;;12.35;62.80371;102024.5;;;;-81
2022/05/13 23:30:23;;;;;;;;;;;;;;;12.32;62.56543;102026.5;;;;-81
2022/05/13 23:35:13;;;;;;;;;;;;;;;12.31;63.04395;102025.9;;;;-79
2022/05/13 23:40:19;;;;;;;;;;;;;;;12.28;62.95117;102024.6;;;;-79
2022/05/13 23:45:16;;;;;;;;;;;;;;;12.28;62.88281;102023.8;;;;-81
2022/05/13 23:50:46;;;;;;;;;;;;;;;12.27;63.25098;102020.7;;;;-82
